Babi Dol, Poland

3:59 PM CET on November 24, 2017 (GMT +0100)
Wyczechowo | | Change Station

Elev 656 ft 54.27 °N, 18.25 °E | Updated 3 minutes ago

Partly Cloudy
Partly Cloudy
47.7 °F
Feels Like 44 °F
N
7.2
Wind Variable Wind from South
Gusts 11.4 mph

Today
High -- | Low -- °F
--% Chance of Precip.
Yesterday
High -- | Low -- °F
Precip. -- in
Pressure 29.71 in
Visibility 6.2 miles
Clouds Few 4100 ft
Windchill 44 °F
Dew Point 40 °F
Humidity 76%
Rainfall 0.00 in
Snow Depth Not available.
7:32 AM 3:34 PM
Waxing Crescent, 30% visible
METAR EPGD 241430Z 18011KT 9999 FEW041 09/06 Q1006
Pressure 29.71 in
Visibility 6.2 miles
Clouds Few 4100 ft
Windchill 44 °F
Dew Point 40 °F
Humidity 76%
Rainfall 0.00 in
Snow Depth Not available.
7:32 AM 3:34 PM
Waxing Crescent, 30% visible
METAR EPGD 241430Z 18011KT 9999 FEW041 09/06 Q1006

Get Severe Weather Alerts

Thanks for signing up!

Be on the lookout for a verification email in your inbox.

You'll start receiving the daily forecast at 6 AM.

×

10-Day Weather Forecast

×

Almanac

Astronomy

Nov. 24, 2017 Rise Set
Actual Time
Civil Twilight
Nautical Twilight
Astronomical Twilight
Moon
Length of Visible Light
Length of Day
Tomorrow will be .
, % of the Moon is Illuminated

Today's Extremes

Country Highs Country Lows

Community

WunderPhotos

Category 6

Welcome to Category 6. This is the collective home for Weather Underground's featured writeups by Dr. Jeff Masters (right), Bob Henson (left), Chris Burt, and other regular contributors.

Nearby

Air Quality

  Air Quality AQ Index Pollutant
Not available.

Snow Depth

Station Depth Elevation

Earthquake Activity

City Distance Mag. Time & Date
Minimum magnitude displayed is 2.5.

Coastal Water Temperatures

Place Temperature

Stations

Nearby Weather Stations

Station Location Temp. Windchill Dew Point Humidity Wind Precip. Elev Updated Type